sensor_id;sensor_type;location;lat;lon;timestamp;pressure;altitude;pressure_sealevel;temperature;humidity
5913;BME280;2982;42.684;23.356;2022-10-16T00:01:37;95529.03;;;8.03;100.00
5913;BME280;2982;42.684;23.356;2022-10-16T00:04:03;95536.63;;;8.03;100.00
5913;BME280;2982;42.684;23.356;2022-10-16T00:06:29;95512.72;;;7.87;100.00
5913;BME280;2982;42.684;23.356;2022-10-16T00:08:57;95542.56;;;8.02;100.00
5913;BME280;2982;42.684;23.356;2022-10-16T00:11:25;95539.44;;;7.94;100.00
5913;BME280;2982;42.684;23.356;2022-10-16T00:13:54;95546.13;;;7.96;100.00
5913;BME280;2982;42.684;23.356;2022-10-16T00:16:20;95542.06;;;7.92;100.00
5913;BME280;2982;42.684;23.356;2022-10-16T00:18:45;95534.66;;;7.86;100.00
5913;BME280;2982;42.684;23.356;2022-10-16T00:21:13;95549.69;;;7.91;100.00
5913;BME280;2982;42.684;23.356;2022-10-16T00:23:39;95552.47;;;7.83;100.00
5913;BME280;2982;42.684;23.356;2022-10-16T00:26:07;95549.16;;;7.81;100.00
5913;BME280;2982;42.684;23.356;2022-10-16T00:28:33;95546.66;;;7.80;100.00
5913;BME280;2982;42.684;23.356;2022-10-16T00:31:03;95541.13;;;7.69;100.00
5913;BME280;2982;42.684;23.356;2022-10-16T00:33:28;95546.28;;;7.66;100.00
5913;BME280;2982;42.684;23.356;2022-10-16T00:35:53;95558.09;;;7.65;100.00
5913;BME280;2982;42.684;23.356;2022-10-16T00:38:19;95565.59;;;7.68;100.00
5913;BME280;2982;42.684;23.356;2022-10-16T00:40:44;95560.63;;;7.65;100.00
5913;BME280;2982;42.684;23.356;2022-10-16T00:43:13;95559.16;;;7.58;100.00
5913;BME280;2982;42.684;23.356;2022-10-16T00:45:39;95559.28;;;7.55;100.00
5913;BME280;2982;42.684;23.356;2022-10-16T00:48:11;95561.84;;;7.53;100.00
5913;BME280;2982;42.684;23.356;2022-10-16T00:50:38;95543.59;;;7.44;100.00
5913;BME280;2982;42.684;23.356;2022-10-16T00:53:03;95550.94;;;7.51;100.00
5913;BME280;2982;42.684;23.356;2022-10-16T00:55:29;95552.84;;;7.45;100.00
5913;BME280;2982;42.684;23.356;2022-10-16T00:57:54;95552.72;;;7.48;100.00
5913;BME280;2982;42.684;23.356;2022-10-16T01:00:25;95557.09;;;7.43;100.00
5913;BME280;2982;42.684;23.356;2022-10-16T01:02:56;95557.25;;;7.38;100.00
5913;BME280;2982;42.684;23.356;2022-10-16T01:05:24;95564.75;;;7.41;100.00
5913;BME280;2982;42.684;23.356;2022-10-16T01:08:00;95568.31;;;7.34;100.00
5913;BME280;2982;42.684;23.356;2022-10-16T01:13:05;95568.34;;;7.33;100.00
5913;BME280;2982;42.684;23.356;2022-10-16T01:18:16;95566.94;;;7.24;100.00
5913;BME280;2982;42.684;23.356;2022-10-16T01:20:54;95540.50;;;7.08;100.00
5913;BME280;2982;42.684;23.356;2022-10-16T01:31:13;95556.38;;;7.12;100.00
5913;BME280;2982;42.684;23.356;2022-10-16T01:33:46;95542.31;;;7.03;100.00
5913;BME280;2982;42.684;23.356;2022-10-16T01:36:19;95541.44;;;7.04;100.00
5913;BME280;2982;42.684;23.356;2022-10-16T01:38:47;95554.63;;;7.14;100.00
5913;BME280;2982;42.684;23.356;2022-10-16T01:43:46;95555.44;;;7.14;100.00
5913;BME280;2982;42.684;23.356;2022-10-16T01:46:18;95556.41;;;7.10;100.00
5913;BME280;2982;42.684;23.356;2022-10-16T01:48:44;95562.25;;;7.12;100.00
5913;BME280;2982;42.684;23.356;2022-10-16T01:51:12;95564.75;;;7.14;100.00
5913;BME280;2982;42.684;23.356;2022-10-16T01:53:40;95569.94;;;7.09;100.00
5913;BME280;2982;42.684;23.356;2022-10-16T01:56:09;95570.72;;;7.09;100.00
5913;BME280;2982;42.684;23.356;2022-10-16T01:58:41;95572.50;;;7.07;100.00
5913;BME280;2982;42.684;23.356;2022-10-16T02:01:10;95570.94;;;7.03;100.00
5913;BME280;2982;42.684;23.356;2022-10-16T02:03:37;95566.91;;;6.96;100.00
5913;BME280;2982;42.684;23.356;2022-10-16T02:06:04;95574.47;;;6.98;100.00
5913;BME280;2982;42.684;23.356;2022-10-16T02:08:30;95576.97;;;6.98;100.00
5913;BME280;2982;42.684;23.356;2022-10-16T02:10:57;95581.94;;;7.01;100.00
5913;BME280;2982;42.684;23.356;2022-10-16T02:13:27;95576.25;;;6.94;100.00
5913;BME280;2982;42.684;23.356;2022-10-16T02:15:54;95578.63;;;6.99;100.00
5913;BME280;2982;42.684;23.356;2022-10-16T02:18:19;95570.44;;;6.91;100.00
5913;BME280;2982;42.684;23.356;2022-10-16T02:20:52;95590.50;;;6.95;100.00
5913;BME280;2982;42.684;23.356;2022-10-16T02:26:13;95570.56;;;6.86;100.00
5913;BME280;2982;42.684;23.356;2022-10-16T02:28:47;95598.66;;;7.05;100.00
5913;BME280;2982;42.684;23.356;2022-10-16T02:31:20;95597.84;;;7.04;100.00
5913;BME280;2982;42.684;23.356;2022-10-16T02:33:50;95599.47;;;7.05;100.00
5913;BME280;2982;42.684;23.356;2022-10-16T02:36:17;95594.63;;;6.99;100.00
5913;BME280;2982;42.684;23.356;2022-10-16T02:38:42;95593.56;;;7.06;100.00
5913;BME280;2982;42.684;23.356;2022-10-16T02:41:08;95591.31;;;6.97;100.00
5913;BME280;2982;42.684;23.356;2022-10-16T02:43:34;95596.19;;;7.03;100.00
5913;BME280;2982;42.684;23.356;2022-10-16T02:45:59;95594.00;;;6.91;100.00
5913;BME280;2982;42.684;23.356;2022-10-16T02:48:25;95594.94;;;6.87;100.00
5913;BME280;2982;42.684;23.356;2022-10-16T02:50:50;95604.16;;;6.90;100.00
5913;BME280;2982;42.684;23.356;2022-10-16T02:53:15;95605.91;;;6.86;100.00
5913;BME280;2982;42.684;23.356;2022-10-16T02:55:40;95603.47;;;6.85;100.00
5913;BME280;2982;42.684;23.356;2022-10-16T02:58:06;95605.84;;;6.89;100.00
5913;BME280;2982;42.684;23.356;2022-10-16T03:00:31;95615.69;;;6.98;100.00
5913;BME280;2982;42.684;23.356;2022-10-16T03:02:56;95612.50;;;6.92;100.00
5913;BME280;2982;42.684;23.356;2022-10-16T03:05:21;95615.16;;;6.87;100.00
5913;BME280;2982;42.684;23.356;2022-10-16T03:07:47;95617.06;;;6.79;100.00
5913;BME280;2982;42.684;23.356;2022-10-16T03:10:12;95598.84;;;6.68;100.00
5913;BME280;2982;42.684;23.356;2022-10-16T03:12:37;95613.03;;;6.72;100.00
5913;BME280;2982;42.684;23.356;2022-10-16T03:15:03;95615.81;;;6.63;100.00
5913;BME280;2982;42.684;23.356;2022-10-16T03:17:28;95608.44;;;6.55;100.00
5913;BME280;2982;42.684;23.356;2022-10-16T03:19:53;95619.25;;;6.60;100.00
5913;BME280;2982;42.684;23.356;2022-10-16T03:22:19;95618.44;;;6.60;100.00
5913;BME280;2982;42.684;23.356;2022-10-16T03:24:44;95617.56;;;6.61;100.00
5913;BME280;2982;42.684;23.356;2022-10-16T03:27:09;95617.63;;;6.58;100.00
5913;BME280;2982;42.684;23.356;2022-10-16T03:29:35;95602.97;;;6.40;100.00
5913;BME280;2982;42.684;23.356;2022-10-16T03:32:00;95627.06;;;6.51;100.00
5913;BME280;2982;42.684;23.356;2022-10-16T03:34:26;95622.03;;;6.51;100.00
5913;BME280;2982;42.684;23.356;2022-10-16T03:36:51;95619.53;;;6.50;100.00
5913;BME280;2982;42.684;23.356;2022-10-16T03:39:17;95622.91;;;6.49;100.00
5913;BME280;2982;42.684;23.356;2022-10-16T03:41:42;95625.38;;;6.52;100.00
5913;BME280;2982;42.684;23.356;2022-10-16T03:44:07;95621.22;;;6.49;100.00
5913;BME280;2982;42.684;23.356;2022-10-16T03:46:33;95622.06;;;6.50;100.00
5913;BME280;2982;42.684;23.356;2022-10-16T03:48:58;95618.66;;;6.51;100.00
5913;BME280;2982;42.684;23.356;2022-10-16T03:51:23;95616.25;;;6.46;100.00
5913;BME280;2982;42.684;23.356;2022-10-16T03:53:49;95585.72;;;6.25;100.00
5913;BME280;2982;42.684;23.356;2022-10-16T03:56:14;95597.28;;;6.33;100.00
5913;BME280;2982;42.684;23.356;2022-10-16T03:58:39;95617.97;;;6.46;100.00
5913;BME280;2982;42.684;23.356;2022-10-16T04:01:04;95617.81;;;6.52;100.00
5913;BME280;2982;42.684;23.356;2022-10-16T04:03:30;95615.47;;;6.44;100.00
5913;BME280;2982;42.684;23.356;2022-10-16T04:05:55;95618.91;;;6.42;100.00
5913;BME280;2982;42.684;23.356;2022-10-16T04:08:21;95588.38;;;6.18;100.00
5913;BME280;2982;42.684;23.356;2022-10-16T04:10:46;95609.06;;;6.33;100.00
5913;BME280;2982;42.684;23.356;2022-10-16T04:13:12;95628.38;;;6.34;100.00
5913;BME280;2982;42.684;23.356;2022-10-16T04:15:37;95611.56;;;6.33;100.00
5913;BME280;2982;42.684;23.356;2022-10-16T04:18:04;95627.66;;;6.29;100.00
5913;BME280;2982;42.684;23.356;2022-10-16T04:20:29;95624.19;;;6.33;100.00
5913;BME280;2982;42.684;23.356;2022-10-16T04:23:04;95618.47;;;6.26;100.00
5913;BME280;2982;42.684;23.356;2022-10-16T04:25:30;95625.88;;;6.32;100.00
5913;BME280;2982;42.684;23.356;2022-10-16T04:27:56;95624.31;;;6.28;100.00
5913;BME280;2982;42.684;23.356;2022-10-16T04:30:22;95612.91;;;6.13;100.00
5913;BME280;2982;42.684;23.356;2022-10-16T04:32:52;95600.44;;;6.07;100.00
5913;BME280;2982;42.684;23.356;2022-10-16T04:35:19;95625.31;;;6.21;100.00
5913;BME280;2982;42.684;23.356;2022-10-16T04:37:44;95635.56;;;6.15;100.00
5913;BME280;2982;42.684;23.356;2022-10-16T04:40:10;95629.75;;;6.11;100.00
5913;BME280;2982;42.684;23.356;2022-10-16T04:42:35;95633.16;;;6.10;100.00
5913;BME280;2982;42.684;23.356;2022-10-16T04:45:00;95643.31;;;6.07;100.00
5913;BME280;2982;42.684;23.356;2022-10-16T04:47:26;95645.00;;;6.07;100.00
5913;BME280;2982;42.684;23.356;2022-10-16T04:49:51;95645.94;;;6.03;100.00
5913;BME280;2982;42.684;23.356;2022-10-16T04:52:16;95655.09;;;6.07;100.00
5913;BME280;2982;42.684;23.356;2022-10-16T04:54:42;95651.81;;;6.03;100.00
5913;BME280;2982;42.684;23.356;2022-10-16T04:57:07;95653.44;;;6.06;100.00
5913;BME280;2982;42.684;23.356;2022-10-16T04:59:32;95657.44;;;6.14;100.00
5913;BME280;2982;42.684;23.356;2022-10-16T05:01:58;95649.19;;;6.08;100.00
5913;BME280;2982;42.684;23.356;2022-10-16T05:04:23;95653.38;;;6.07;100.00
5913;BME280;2982;42.684;23.356;2022-10-16T05:06:48;95661.50;;;6.20;100.00
5913;BME280;2982;42.684;23.356;2022-10-16T05:09:14;95661.31;;;6.28;100.00
5913;BME280;2982;42.684;23.356;2022-10-16T05:11:39;95667.84;;;6.35;100.00
5913;BME280;2982;42.684;23.356;2022-10-16T05:14:05;95645.31;;;6.29;100.00
5913;BME280;2982;42.684;23.356;2022-10-16T05:16:30;95665.03;;;6.47;100.00
5913;BME280;2982;42.684;23.356;2022-10-16T05:18:55;95669.78;;;6.59;100.00
5913;BME280;2982;42.684;23.356;2022-10-16T05:21:21;95664.38;;;6.73;100.00
5913;BME280;2982;42.684;23.356;2022-10-16T05:23:46;95671.09;;;7.04;100.00
5913;BME280;2982;42.684;23.356;2022-10-16T05:26:11;95674.91;;;7.48;100.00
5913;BME280;2982;42.684;23.356;2022-10-16T05:28:37;95677.84;;;7.90;100.00
5913;BME280;2982;42.684;23.356;2022-10-16T05:31:06;95664.84;;;8.29;100.00
5913;BME280;2982;42.684;23.356;2022-10-16T05:33:32;95662.78;;;8.66;100.00
5913;BME280;2982;42.684;23.356;2022-10-16T05:36:01;95671.53;;;9.06;100.00
5913;BME280;2982;42.684;23.356;2022-10-16T05:38:27;95684.47;;;9.46;100.00
5913;BME280;2982;42.684;23.356;2022-10-16T05:40:53;95690.63;;;9.39;100.00
5913;BME280;2982;42.684;23.356;2022-10-16T05:43:18;95688.00;;;9.42;100.00
5913;BME280;2982;42.684;23.356;2022-10-16T05:45:53;95699.06;;;9.40;100.00
5913;BME280;2982;42.684;23.356;2022-10-16T05:48:18;95700.50;;;9.23;100.00
5913;BME280;2982;42.684;23.356;2022-10-16T05:50:44;95699.41;;;9.06;100.00
5913;BME280;2982;42.684;23.356;2022-10-16T05:53:09;95707.84;;;9.06;100.00
5913;BME280;2982;42.684;23.356;2022-10-16T05:55:34;95710.66;;;8.99;100.00
5913;BME280;2982;42.684;23.356;2022-10-16T05:58:02;95659.00;;;8.53;100.00
5913;BME280;2982;42.684;23.356;2022-10-16T06:00:30;95722.13;;;8.84;100.00
5913;BME280;2982;42.684;23.356;2022-10-16T06:02:56;95715.47;;;8.81;100.00
5913;BME280;2982;42.684;23.356;2022-10-16T06:05:21;95720.47;;;8.83;100.00
5913;BME280;2982;42.684;23.356;2022-10-16T06:07:46;95730.56;;;8.84;100.00
5913;BME280;2982;42.684;23.356;2022-10-16T06:10:11;95737.16;;;8.89;100.00
5913;BME280;2982;42.684;23.356;2022-10-16T06:12:37;95737.06;;;8.92;100.00
5913;BME280;2982;42.684;23.356;2022-10-16T06:15:02;95709.72;;;8.76;100.00
5913;BME280;2982;42.684;23.356;2022-10-16T06:17:28;95722.97;;;8.84;100.00
5913;BME280;2982;42.684;23.356;2022-10-16T06:19:53;95744.63;;;8.93;100.00
5913;BME280;2982;42.684;23.356;2022-10-16T06:22:18;95736.00;;;8.99;100.00
5913;BME280;2982;42.684;23.356;2022-10-16T06:24:43;95752.13;;;9.21;100.00
5913;BME280;2982;42.684;23.356;2022-10-16T06:27:09;95746.63;;;9.33;100.00
5913;BME280;2982;42.684;23.356;2022-10-16T06:29:34;95760.59;;;9.45;100.00
5913;BME280;2982;42.684;23.356;2022-10-16T06:31:59;95726.34;;;9.33;100.00
5913;BME280;2982;42.684;23.356;2022-10-16T06:34:27;95755.97;;;9.56;100.00
5913;BME280;2982;42.684;23.356;2022-10-16T06:36:53;95755.34;;;9.72;100.00
5913;BME280;2982;42.684;23.356;2022-10-16T06:39:18;95741.97;;;9.69;100.00
5913;BME280;2982;42.684;23.356;2022-10-16T06:41:43;95765.13;;;9.83;100.00
5913;BME280;2982;42.684;23.356;2022-10-16T06:44:08;95768.19;;;9.91;100.00
5913;BME280;2982;42.684;23.356;2022-10-16T06:46:34;95772.53;;;10.11;100.00
5913;BME280;2982;42.684;23.356;2022-10-16T06:48:59;95776.72;;;10.12;100.00
5913;BME280;2982;42.684;23.356;2022-10-16T06:51:25;95776.16;;;10.04;100.00
5913;BME280;2982;42.684;23.356;2022-10-16T06:53:54;95787.94;;;10.06;100.00
5913;BME280;2982;42.684;23.356;2022-10-16T06:56:24;95793.59;;;10.13;100.00
5913;BME280;2982;42.684;23.356;2022-10-16T06:58:50;95791.47;;;10.26;100.00
5913;BME280;2982;42.684;23.356;2022-10-16T07:01:17;95791.56;;;10.23;100.00
5913;BME280;2982;42.684;23.356;2022-10-16T07:03:45;95795.66;;;10.27;100.00
5913;BME280;2982;42.684;23.356;2022-10-16T07:06:15;95797.69;;;10.40;100.00
5913;BME280;2982;42.684;23.356;2022-10-16T07:08:42;95793.31;;;10.66;100.00
5913;BME280;2982;42.684;23.356;2022-10-16T07:11:10;95798.91;;;10.74;100.00
5913;BME280;2982;42.684;23.356;2022-10-16T07:13:37;95799.97;;;10.90;100.00
5913;BME280;2982;42.684;23.356;2022-10-16T07:16:10;95787.97;;;11.14;100.00
5913;BME280;2982;42.684;23.356;2022-10-16T07:18:36;95802.97;;;11.20;100.00
5913;BME280;2982;42.684;23.356;2022-10-16T07:21:06;95803.03;;;11.18;100.00
5913;BME280;2982;42.684;23.356;2022-10-16T07:23:31;95799.09;;;11.31;100.00
5913;BME280;2982;42.684;23.356;2022-10-16T07:25:56;95795.56;;;11.34;100.00
5913;BME280;2982;42.684;23.356;2022-10-16T07:28:22;95806.53;;;11.36;100.00
5913;BME280;2982;42.684;23.356;2022-10-16T07:30:48;95811.72;;;11.53;100.00
5913;BME280;2982;42.684;23.356;2022-10-16T07:33:16;95808.34;;;11.73;100.00
5913;BME280;2982;42.684;23.356;2022-10-16T07:35:51;95798.69;;;11.61;100.00
5913;BME280;2982;42.684;23.356;2022-10-16T07:38:17;95810.19;;;11.69;100.00
5913;BME280;2982;42.684;23.356;2022-10-16T07:40:43;95802.75;;;11.85;100.00
5913;BME280;2982;42.684;23.356;2022-10-16T07:43:09;95811.97;;;11.87;100.00
5913;BME280;2982;42.684;23.356;2022-10-16T07:45:34;95808.88;;;12.00;100.00
5913;BME280;2982;42.684;23.356;2022-10-16T07:47:59;95812.44;;;11.96;100.00
5913;BME280;2982;42.684;23.356;2022-10-16T07:50:25;95816.88;;;12.11;100.00
5913;BME280;2982;42.684;23.356;2022-10-16T07:52:50;95813.63;;;12.26;100.00
5913;BME280;2982;42.684;23.356;2022-10-16T07:55:15;95814.47;;;12.26;100.00
5913;BME280;2982;42.684;23.356;2022-10-16T07:57:41;95813.28;;;12.33;100.00
5913;BME280;2982;42.684;23.356;2022-10-16T08:00:06;95814.69;;;12.58;100.00
5913;BME280;2982;42.684;23.356;2022-10-16T08:02:32;95813.06;;;12.74;100.00
5913;BME280;2982;42.684;23.356;2022-10-16T08:04:57;95805.59;;;12.71;100.00
5913;BME280;2982;42.684;23.356;2022-10-16T08:07:22;95823.38;;;12.90;100.00
5913;BME280;2982;42.684;23.356;2022-10-16T08:09:51;95823.09;;;12.96;100.00
5913;BME280;2982;42.684;23.356;2022-10-16T08:12:16;95817.97;;;13.14;100.00
5913;BME280;2982;42.684;23.356;2022-10-16T08:14:41;95819.03;;;13.28;100.00
5913;BME280;2982;42.684;23.356;2022-10-16T08:17:06;95814.94;;;13.41;100.00
5913;BME280;2982;42.684;23.356;2022-10-16T08:19:32;95813.47;;;13.19;100.00
5913;BME280;2982;42.684;23.356;2022-10-16T08:21:57;95813.91;;;13.28;100.00
5913;BME280;2982;42.684;23.356;2022-10-16T08:24:22;95807.44;;;13.20;100.00
5913;BME280;2982;42.684;23.356;2022-10-16T08:26:48;95802.59;;;13.33;100.00
5913;BME280;2982;42.684;23.356;2022-10-16T08:29:14;95808.88;;;13.43;100.00
5913;BME280;2982;42.684;23.356;2022-10-16T08:31:39;95786.13;;;13.56;100.00
5913;BME280;2982;42.684;23.356;2022-10-16T08:34:04;95795.63;;;13.70;100.00
5913;BME280;2982;42.684;23.356;2022-10-16T08:36:30;95798.47;;;13.96;100.00
5913;BME280;2982;42.684;23.356;2022-10-16T08:38:55;95796.19;;;14.07;100.00
5913;BME280;2982;42.684;23.356;2022-10-16T08:44:35;95810.03;;;14.19;100.00
5913;BME280;2982;42.684;23.356;2022-10-16T08:50:13;95812.03;;;14.61;100.00
5913;BME280;2982;42.684;23.356;2022-10-16T08:52:41;95803.81;;;14.56;100.00
5913;BME280;2982;42.684;23.356;2022-10-16T08:55:19;95811.56;;;14.54;100.00
5913;BME280;2982;42.684;23.356;2022-10-16T08:57:50;95815.09;;;14.68;100.00
5913;BME280;2982;42.684;23.356;2022-10-16T09:00:16;95812.38;;;14.71;100.00
5913;BME280;2982;42.684;23.356;2022-10-16T09:05:55;95810.22;;;15.24;100.00
5913;BME280;2982;42.684;23.356;2022-10-16T09:08:28;95814.97;;;15.30;100.00
5913;BME280;2982;42.684;23.356;2022-10-16T09:10:59;95806.09;;;15.52;100.00
5913;BME280;2982;42.684;23.356;2022-10-16T09:13:47;95799.16;;;15.68;100.00
5913;BME280;2982;42.684;23.356;2022-10-16T09:21:27;95812.41;;;15.74;97.88
5913;BME280;2982;42.684;23.356;2022-10-16T09:23:58;95805.25;;;15.51;96.77
5913;BME280;2982;42.684;23.356;2022-10-16T09:26:24;95811.84;;;15.55;98.57
5913;BME280;2982;42.684;23.356;2022-10-16T09:28:52;95811.50;;;15.61;98.30
5913;BME280;2982;42.684;23.356;2022-10-16T09:31:19;95806.69;;;15.85;99.70
5913;BME280;2982;42.684;23.356;2022-10-16T09:33:50;95811.16;;;15.96;98.86
5913;BME280;2982;42.684;23.356;2022-10-16T09:36:18;95807.66;;;16.11;95.92
5913;BME280;2982;42.684;23.356;2022-10-16T09:38:44;95800.44;;;16.03;96.53
5913;BME280;2982;42.684;23.356;2022-10-16T09:43:46;95793.84;;;16.13;94.85
5913;BME280;2982;42.684;23.356;2022-10-16T09:46:32;95797.22;;;16.28;93.19
5913;BME280;2982;42.684;23.356;2022-10-16T09:49:04;95799.91;;;16.53;92.22
5913;BME280;2982;42.684;23.356;2022-10-16T09:51:31;95800.53;;;16.57;86.10
5913;BME280;2982;42.684;23.356;2022-10-16T09:56:34;95794.19;;;16.21;85.82
5913;BME280;2982;42.684;23.356;2022-10-16T09:59:03;95787.59;;;16.32;89.13
5913;BME280;2982;42.684;23.356;2022-10-16T10:01:39;95790.31;;;16.28;90.78
5913;BME280;2982;42.684;23.356;2022-10-16T10:04:05;95785.13;;;16.30;90.38
5913;BME280;2982;42.684;23.356;2022-10-16T10:06:35;95777.75;;;16.38;88.25
5913;BME280;2982;42.684;23.356;2022-10-16T10:11:48;95782.97;;;16.65;85.76
5913;BME280;2982;42.684;23.356;2022-10-16T10:14:26;95782.84;;;16.66;83.58
5913;BME280;2982;42.684;23.356;2022-10-16T10:17:07;95785.41;;;16.66;82.50
5913;BME280;2982;42.684;23.356;2022-10-16T10:19:57;95789.91;;;16.63;78.23
5913;BME280;2982;42.684;23.356;2022-10-16T10:22:39;95781.19;;;16.80;79.24
5913;BME280;2982;42.684;23.356;2022-10-16T10:35:24;95704.00;;;16.56;84.05
5913;BME280;2982;42.684;23.356;2022-10-16T10:46:35;95754.56;;;17.07;76.21
5913;BME280;2982;42.684;23.356;2022-10-16T10:57:43;95744.78;;;17.12;73.54
5913;BME280;2982;42.684;23.356;2022-10-16T11:06:06;95734.69;;;17.62;75.70
5913;BME280;2982;42.684;23.356;2022-10-16T11:08:50;95702.72;;;17.53;76.29
5913;BME280;2982;42.684;23.356;2022-10-16T11:11:23;95726.97;;;17.62;71.11
5913;BME280;2982;42.684;23.356;2022-10-16T11:16:34;95725.09;;;17.89;70.79
5913;BME280;2982;42.684;23.356;2022-10-16T11:22:12;95732.41;;;17.82;68.54
5913;BME280;2982;42.684;23.356;2022-10-16T11:30:02;95714.44;;;17.82;69.07
5913;BME280;2982;42.684;23.356;2022-10-16T11:32:38;95719.94;;;17.89;69.62
5913;BME280;2982;42.684;23.356;2022-10-16T11:38:02;95723.06;;;17.81;69.18
5913;BME280;2982;42.684;23.356;2022-10-16T11:40:31;95714.53;;;17.81;70.15
5913;BME280;2982;42.684;23.356;2022-10-16T11:43:21;95724.06;;;17.91;70.32
5913;BME280;2982;42.684;23.356;2022-10-16T11:45:52;95723.34;;;17.89;70.10
5913;BME280;2982;42.684;23.356;2022-10-16T11:51:14;95724.78;;;17.93;68.90
5913;BME280;2982;42.684;23.356;2022-10-16T11:54:02;95721.91;;;17.85;67.27
5913;BME280;2982;42.684;23.356;2022-10-16T11:56:31;95733.81;;;17.99;67.23
5913;BME280;2982;42.684;23.356;2022-10-16T11:59:10;95713.75;;;18.04;66.96
5913;BME280;2982;42.684;23.356;2022-10-16T12:01:46;95698.31;;;18.04;66.89
5913;BME280;2982;42.684;23.356;2022-10-16T12:06:57;95717.84;;;18.19;68.96
5913;BME280;2982;42.684;23.356;2022-10-16T12:09:29;95711.88;;;18.19;65.43
5913;BME280;2982;42.684;23.356;2022-10-16T12:11:56;95719.44;;;18.20;66.01
5913;BME280;2982;42.684;23.356;2022-10-16T12:14:34;95720.94;;;18.35;64.32
5913;BME280;2982;42.684;23.356;2022-10-16T12:17:23;95717.44;;;18.36;63.66
5913;BME280;2982;42.684;23.356;2022-10-16T12:20:18;95720.44;;;18.30;64.82
5913;BME280;2982;42.684;23.356;2022-10-16T12:22:52;95725.59;;;18.30;66.37
5913;BME280;2982;42.684;23.356;2022-10-16T12:25:24;95723.72;;;18.09;65.53
5913;BME280;2982;42.684;23.356;2022-10-16T12:28:01;95708.00;;;18.00;62.56
5913;BME280;2982;42.684;23.356;2022-10-16T12:30:31;95717.69;;;18.21;64.75
5913;BME280;2982;42.684;23.356;2022-10-16T12:33:00;95713.34;;;18.34;67.00
5913;BME280;2982;42.684;23.356;2022-10-16T12:35:34;95720.09;;;18.47;65.80
5913;BME280;2982;42.684;23.356;2022-10-16T12:38:16;95717.41;;;18.49;66.46
5913;BME280;2982;42.684;23.356;2022-10-16T12:40:43;95721.81;;;18.60;68.06
5913;BME280;2982;42.684;23.356;2022-10-16T12:43:34;95717.81;;;18.56;66.17
5913;BME280;2982;42.684;23.356;2022-10-16T12:46:20;95720.16;;;18.59;64.57
5913;BME280;2982;42.684;23.356;2022-10-16T12:48:46;95691.66;;;18.25;66.47
5913;BME280;2982;42.684;23.356;2022-10-16T12:54:14;95725.16;;;18.36;65.72
5913;BME280;2982;42.684;23.356;2022-10-16T13:15:55;95731.69;;;18.77;63.28
5913;BME280;2982;42.684;23.356;2022-10-16T13:18:33;95717.41;;;18.73;63.14
5913;BME280;2982;42.684;23.356;2022-10-16T13:29:03;95719.72;;;18.65;61.58
5913;BME280;2982;42.684;23.356;2022-10-16T13:31:31;95738.28;;;18.57;62.29
5913;BME280;2982;42.684;23.356;2022-10-16T13:33:58;95731.81;;;18.52;60.52
5913;BME280;2982;42.684;23.356;2022-10-16T13:36:33;95732.63;;;18.52;61.52
5913;BME280;2982;42.684;23.356;2022-10-16T13:39:21;95727.59;;;18.51;61.31
5913;BME280;2982;42.684;23.356;2022-10-16T13:44:23;95732.34;;;18.44;62.52
5913;BME280;2982;42.684;23.356;2022-10-16T13:46:58;95719.19;;;18.36;59.87
5913;BME280;2982;42.684;23.356;2022-10-16T13:49:24;95717.81;;;18.43;61.00
5913;BME280;2982;42.684;23.356;2022-10-16T13:51:57;95732.16;;;18.34;61.02
5913;BME280;2982;42.684;23.356;2022-10-16T13:54:24;95726.97;;;18.23;62.14
5913;BME280;2982;42.684;23.356;2022-10-16T13:56:50;95705.00;;;18.07;61.60
5913;BME280;2982;42.684;23.356;2022-10-16T13:59:24;95736.09;;;18.27;63.31
5913;BME280;2982;42.684;23.356;2022-10-16T14:01:52;95743.00;;;18.27;61.71
5913;BME280;2982;42.684;23.356;2022-10-16T14:04:18;95737.25;;;18.23;62.56
5913;BME280;2982;42.684;23.356;2022-10-16T14:06:49;95732.84;;;18.13;62.85
5913;BME280;2982;42.684;23.356;2022-10-16T14:09:24;95738.41;;;18.19;64.09
5913;BME280;2982;42.684;23.356;2022-10-16T14:11:57;95736.38;;;17.99;60.70
5913;BME280;2982;42.684;23.356;2022-10-16T14:14:35;95748.81;;;18.05;60.83
5913;BME280;2982;42.684;23.356;2022-10-16T14:17:05;95738.75;;;17.89;60.58
5913;BME280;2982;42.684;23.356;2022-10-16T14:19:31;95752.66;;;17.87;60.95
5913;BME280;2982;42.684;23.356;2022-10-16T14:22:23;95747.63;;;17.73;60.85
5913;BME280;2982;42.684;23.356;2022-10-16T14:24:51;95760.16;;;17.65;61.47
5913;BME280;2982;42.684;23.356;2022-10-16T14:27:42;95756.34;;;17.57;60.86
5913;BME280;2982;42.684;23.356;2022-10-16T14:32:33;95757.97;;;17.33;59.45
5913;BME280;2982;42.684;23.356;2022-10-16T14:34:58;95742.13;;;17.14;60.37
5913;BME280;2982;42.684;23.356;2022-10-16T14:37:25;95761.44;;;17.20;61.65
5913;BME280;2982;42.684;23.356;2022-10-16T14:39:52;95761.84;;;17.13;61.95
5913;BME280;2982;42.684;23.356;2022-10-16T14:42:20;95765.13;;;17.03;62.93
5913;BME280;2982;42.684;23.356;2022-10-16T14:44:47;95767.78;;;17.01;63.90
5913;BME280;2982;42.684;23.356;2022-10-16T14:47:18;95772.06;;;16.88;64.56
5913;BME280;2982;42.684;23.356;2022-10-16T14:49:44;95767.69;;;16.76;64.09
5913;BME280;2982;42.684;23.356;2022-10-16T14:52:13;95766.84;;;16.63;65.57
5913;BME280;2982;42.684;23.356;2022-10-16T14:54:48;95783.28;;;16.73;64.78
5913;BME280;2982;42.684;23.356;2022-10-16T14:57:22;95784.31;;;16.56;65.46
5913;BME280;2982;42.684;23.356;2022-10-16T14:59:49;95777.59;;;16.41;66.50
5913;BME280;2982;42.684;23.356;2022-10-16T15:02:34;95785.56;;;16.37;66.61
5913;BME280;2982;42.684;23.356;2022-10-16T15:05:19;95786.13;;;16.27;67.02
5913;BME280;2982;42.684;23.356;2022-10-16T15:07:45;95785.34;;;16.13;67.83
5913;BME280;2982;42.684;23.356;2022-10-16T15:10:12;95787.91;;;15.99;69.53
5913;BME280;2982;42.684;23.356;2022-10-16T15:12:38;95788.81;;;15.98;69.69
5913;BME280;2982;42.684;23.356;2022-10-16T15:15:28;95764.66;;;15.73;71.39
5913;BME280;2982;42.684;23.356;2022-10-16T15:17:56;95786.06;;;15.72;72.84
5913;BME280;2982;42.684;23.356;2022-10-16T15:20:30;95790.75;;;15.66;73.15
5913;BME280;2982;42.684;23.356;2022-10-16T15:22:57;95794.56;;;15.59;74.10
5913;BME280;2982;42.684;23.356;2022-10-16T15:25:28;95792.38;;;15.53;75.22
5913;BME280;2982;42.684;23.356;2022-10-16T15:27:58;95768.88;;;15.30;76.14